Terminal Aerodrome Forecast
Issued by NWS Wilmington, OH

Current Version | Previous Version | Graphics & Text | Print | Product List | Glossary On
Versions: 1 2 3 4 5 6 7 8 9 10 11 12 13 14 15 16 17 18 19 20 21 22 23
000
FTUS41 KILN 260800 AAA
TAFILN
TAF AMD
KILN 260802Z 2608/2706 19006KT P6SM SCT020 SCT040 BKN250
     FM261300 21012G20KT P6SM SCT025 BKN250
     FM261500 21014G22KT P6SM BKN035
     FM261800 21016G26KT P6SM VCTS BKN040CB
     FM270100 20012KT P6SM VCSH BKN040=

USA.gov is the U.S. government's official web portal to all federal, state and local government web resources and services.